createdAt,value
2023-03-06T00:01:07.098Z,9.33
2023-03-06T00:03:34.012Z,9.30
2023-03-06T00:06:01.142Z,9.60
2023-03-06T00:08:28.799Z,10.23
2023-03-06T00:10:56.480Z,10.73
2023-03-06T00:13:23.751Z,11.70
2023-03-06T00:15:50.414Z,10.80
2023-03-06T00:18:17.350Z,9.93
2023-03-06T00:20:44.154Z,9.60
2023-03-06T00:23:11.501Z,9.67
2023-03-06T00:25:38.927Z,9.80
2023-03-06T00:28:06.039Z,9.23
2023-03-06T00:30:32.931Z,9.27
2023-03-06T00:32:59.450Z,10.30
2023-03-06T00:35:26.167Z,11.17
2023-03-06T00:37:52.703Z,10.00
2023-03-06T00:40:21.165Z,10.17
2023-03-06T00:42:48.404Z,9.37
2023-03-06T00:45:15.245Z,9.73
2023-03-06T00:47:42.321Z,10.00
2023-03-06T00:50:09.754Z,10.50
2023-03-06T00:52:36.532Z,10.23
2023-03-06T00:55:03.324Z,9.77
2023-03-06T00:57:30.002Z,8.97
2023-03-06T00:59:56.570Z,10.23
2023-03-06T01:02:23.181Z,11.43
2023-03-06T01:04:49.727Z,10.77
2023-03-06T01:07:16.376Z,9.30
2023-03-06T01:09:42.910Z,9.60
2023-03-06T01:12:09.693Z,9.70
2023-03-06T01:14:36.211Z,9.13
2023-03-06T01:17:03.023Z,9.20
2023-03-06T01:19:29.518Z,9.67
2023-03-06T01:21:56.126Z,10.60
2023-03-06T01:24:25.742Z,10.10
2023-03-06T01:26:52.499Z,9.37
2023-03-06T01:29:19.033Z,9.50
2023-03-06T01:31:45.590Z,10.50
2023-03-06T01:34:12.281Z,7.90
2023-03-06T01:36:38.756Z,8.80
2023-03-06T01:39:05.337Z,8.97
2023-03-06T01:41:32.884Z,9.57
2023-03-06T01:43:59.744Z,9.87
2023-03-06T01:46:29.517Z,10.27
2023-03-06T01:49:14.680Z,9.37
2023-03-06T01:51:45.771Z,8.73
2023-03-06T01:54:16.406Z,9.10
2023-03-06T01:56:44.756Z,8.33
2023-03-06T01:59:11.537Z,9.37
2023-03-06T02:01:39.900Z,9.77
2023-03-06T02:04:06.923Z,9.47
2023-03-06T02:06:38.453Z,8.40
2023-03-06T02:09:06.298Z,9.97
2023-03-06T02:11:32.961Z,9.20
2023-03-06T02:13:59.537Z,10.13
2023-03-06T02:16:28.742Z,8.63
2023-03-06T02:18:55.847Z,7.97
2023-03-06T02:21:40.510Z,8.90
2023-03-06T02:24:13.188Z,9.60
2023-03-06T02:26:41.164Z,9.60
2023-03-06T02:29:08.289Z,9.07
2023-03-06T02:31:35.616Z,9.43
2023-03-06T02:34:13.939Z,10.20
2023-03-06T02:36:54.043Z,9.00
2023-03-06T02:39:24.255Z,8.90
2023-03-06T02:41:50.996Z,8.60
2023-03-06T02:44:17.551Z,10.10
2023-03-06T02:46:44.194Z,9.27
2023-03-06T02:49:10.680Z,9.43
2023-03-06T02:51:37.236Z,8.70
2023-03-06T02:54:04.061Z,8.43
2023-03-06T02:56:30.690Z,9.07
2023-03-06T02:58:57.418Z,9.40
2023-03-06T03:01:24.259Z,9.00
2023-03-06T03:03:50.841Z,8.60
2023-03-06T03:06:17.528Z,8.50
2023-03-06T03:08:44.003Z,8.77
2023-03-06T03:11:10.620Z,7.83
2023-03-06T03:13:37.642Z,8.70
2023-03-06T03:16:09.370Z,8.00
2023-03-06T03:18:36.150Z,7.60
2023-03-06T03:21:07.516Z,9.10
2023-03-06T03:23:34.081Z,9.03
2023-03-06T03:26:11.326Z,8.43
2023-03-06T03:28:38.162Z,8.80
2023-03-06T03:31:05.604Z,8.43
2023-03-06T03:33:32.853Z,7.47
2023-03-06T03:36:00.033Z,9.13
2023-03-06T03:38:27.200Z,9.00
2023-03-06T03:40:53.700Z,8.57
2023-03-06T03:43:20.290Z,7.50
2023-03-06T03:45:46.903Z,8.10
2023-03-06T03:48:13.516Z,7.80
2023-03-06T03:50:39.955Z,8.77
2023-03-06T03:53:06.765Z,7.10
2023-03-06T03:55:33.295Z,6.60
2023-03-06T03:57:59.804Z,7.93
2023-03-06T04:00:26.263Z,8.00
2023-03-06T04:02:52.848Z,7.70
2023-03-06T04:05:19.625Z,7.73
2023-03-06T04:07:46.128Z,7.20
2023-03-06T04:10:13.294Z,7.37
2023-03-06T04:12:39.932Z,7.73
2023-03-06T04:15:07.743Z,8.60
2023-03-06T04:17:35.201Z,7.93
2023-03-06T04:20:04.123Z,8.10
2023-03-06T04:22:30.833Z,8.83
2023-03-06T04:24:57.290Z,8.67
2023-03-06T04:27:24.011Z,7.50
2023-03-06T04:29:50.577Z,8.30
2023-03-06T04:32:18.304Z,7.90
2023-03-06T04:34:46.194Z,7.60
2023-03-06T04:37:23.999Z,8.20
2023-03-06T04:39:50.827Z,9.27
2023-03-06T04:42:17.933Z,8.87
2023-03-06T04:44:44.616Z,8.60
2023-03-06T04:47:11.708Z,8.50
2023-03-06T04:49:38.218Z,9.47
2023-03-06T04:52:04.942Z,9.37
2023-03-06T04:54:31.466Z,8.83
2023-03-06T04:56:58.490Z,9.60
2023-03-06T04:59:25.114Z,7.97
2023-03-06T05:01:51.961Z,8.20
2023-03-06T05:04:18.569Z,8.87
2023-03-06T05:06:45.061Z,8.93
2023-03-06T05:09:11.510Z,8.20
2023-03-06T05:11:38.063Z,8.00
2023-03-06T05:14:04.727Z,8.97
2023-03-06T05:16:31.260Z,6.60
2023-03-06T05:18:57.865Z,8.97
2023-03-06T05:21:24.405Z,8.37
2023-03-06T05:23:51.006Z,9.37
2023-03-06T05:26:17.661Z,9.40
2023-03-06T05:28:44.185Z,8.60
2023-03-06T05:31:10.795Z,8.37
2023-03-06T05:33:37.458Z,10.50
2023-03-06T05:36:04.713Z,10.03
2023-03-06T05:38:32.211Z,9.67
2023-03-06T05:40:58.705Z,9.60
2023-03-06T05:43:25.253Z,9.60
2023-03-06T05:45:53.114Z,10.60
2023-03-06T05:48:19.645Z,9.07
2023-03-06T05:50:46.130Z,9.10
2023-03-06T05:53:12.731Z,8.90
2023-03-06T05:55:39.243Z,8.73
2023-03-06T05:58:05.741Z,8.80
2023-03-06T06:00:32.394Z,8.20
2023-03-06T06:03:01.822Z,8.43
2023-03-06T06:05:28.345Z,10.67
2023-03-06T06:07:54.952Z,10.67
2023-03-06T06:10:21.500Z,9.60
2023-03-06T06:12:48.140Z,9.30
2023-03-06T06:15:15.364Z,9.73
2023-03-06T06:17:42.143Z,9.27
2023-03-06T06:20:09.291Z,10.67
2023-03-06T06:22:38.008Z,10.57
2023-03-06T06:25:05.857Z,11.50
2023-03-06T06:27:32.428Z,10.37
2023-03-06T06:29:58.937Z,9.27
2023-03-06T06:32:25.531Z,11.67
2023-03-06T06:34:52.057Z,10.43
2023-03-06T06:37:18.634Z,9.60
2023-03-06T06:39:45.208Z,10.67
2023-03-06T06:42:29.290Z,11.83
2023-03-06T06:44:58.110Z,11.67
2023-03-06T06:47:25.781Z,11.00
2023-03-06T06:49:53.898Z,10.30
2023-03-06T06:52:20.644Z,9.80
2023-03-06T06:54:47.479Z,10.87
2023-03-06T06:57:14.418Z,10.27
2023-03-06T06:59:41.035Z,10.40
2023-03-06T07:02:07.770Z,11.40
2023-03-06T07:04:34.334Z,11.20
2023-03-06T07:07:01.175Z,11.07
2023-03-06T07:09:27.812Z,12.30
2023-03-06T07:11:54.453Z,11.20
2023-03-06T07:14:21.121Z,10.40
2023-03-06T07:16:47.634Z,12.53
2023-03-06T07:19:14.538Z,12.37
2023-03-06T07:21:41.532Z,10.80
2023-03-06T07:24:08.305Z,11.10
2023-03-06T07:26:35.067Z,12.60
2023-03-06T07:29:02.293Z,11.23
2023-03-06T07:31:29.078Z,11.67
2023-03-06T07:33:56.049Z,11.77
2023-03-06T07:36:23.671Z,10.57
2023-03-06T07:38:50.342Z,13.20
2023-03-06T07:41:20.437Z,12.00
2023-03-06T07:43:49.218Z,11.90
2023-03-06T07:46:16.010Z,11.87
2023-03-06T07:48:43.087Z,12.33
2023-03-06T07:51:16.362Z,12.70
2023-03-06T07:53:43.238Z,12.17
2023-03-06T07:56:11.218Z,12.27
2023-03-06T07:58:39.190Z,11.97
2023-03-06T08:01:07.816Z,13.80
2023-03-06T08:03:35.022Z,12.83
2023-03-06T08:06:06.680Z,10.73
2023-03-06T08:08:35.302Z,13.60
2023-03-06T08:11:01.920Z,12.83
2023-03-06T08:13:28.567Z,12.63
2023-03-06T08:15:56.350Z,11.57
2023-03-06T08:18:22.893Z,12.30
2023-03-06T08:20:49.491Z,12.37
2023-03-06T08:23:16.246Z,11.73
2023-03-06T08:25:42.799Z,11.97
2023-03-06T08:28:09.493Z,12.37
2023-03-06T08:30:36.017Z,11.93
2023-03-06T08:33:02.737Z,11.73
2023-03-06T08:35:29.291Z,13.20
2023-03-06T08:37:55.944Z,12.80
2023-03-06T08:40:23.576Z,13.10
2023-03-06T08:42:50.138Z,12.60
2023-03-06T08:45:16.964Z,12.07
2023-03-06T08:47:43.497Z,12.00
2023-03-06T08:50:11.277Z,12.37
2023-03-06T08:52:37.800Z,12.83
2023-03-06T08:55:05.473Z,12.63
2023-03-06T08:57:32.184Z,12.90
2023-03-06T08:59:58.883Z,11.90
2023-03-06T09:02:25.516Z,12.03
2023-03-06T09:04:52.101Z,11.40
2023-03-06T09:07:18.641Z,12.23
2023-03-06T09:09:45.132Z,13.17
2023-03-06T09:12:11.809Z,13.30
2023-03-06T09:14:38.272Z,13.13
2023-03-06T09:17:04.936Z,11.77
2023-03-06T09:19:31.445Z,12.10
2023-03-06T09:22:00.577Z,12.93
2023-03-06T09:24:27.125Z,13.50
2023-03-06T09:26:53.743Z,13.33
2023-03-06T09:29:20.182Z,12.53
2023-03-06T09:31:46.843Z,11.93
2023-03-06T09:34:13.576Z,11.77
2023-03-06T09:36:55.553Z,11.00
2023-03-06T09:39:24.113Z,11.30
2023-03-06T09:41:50.898Z,12.77
2023-03-06T09:44:21.055Z,12.27
2023-03-06T09:47:15.537Z,13.80
2023-03-06T09:49:59.727Z,12.70
2023-03-06T09:52:26.268Z,13.40
2023-03-06T09:54:59.221Z,12.50
2023-03-06T09:57:28.469Z,13.10
2023-03-06T09:59:58.064Z,13.00
2023-03-06T10:02:49.152Z,14.10
2023-03-06T10:05:27.136Z,12.97
2023-03-06T10:08:02.973Z,12.40
2023-03-06T10:10:58.120Z,12.10
2023-03-06T10:13:33.286Z,11.77
2023-03-06T10:16:23.173Z,12.13
2023-03-06T10:18:50.688Z,11.10
2023-03-06T10:21:36.301Z,12.17
2023-03-06T10:24:26.856Z,10.27
2023-03-06T10:27:10.985Z,9.73
2023-03-06T10:30:01.576Z,10.43
2023-03-06T10:32:46.292Z,11.37
2023-03-06T10:35:20.182Z,12.47
2023-03-06T10:37:47.214Z,12.37
2023-03-06T10:40:20.790Z,11.43
2023-03-06T10:42:47.340Z,11.10
2023-03-06T10:45:15.934Z,12.10
2023-03-06T10:47:43.432Z,19.30
2023-03-06T10:50:31.528Z,23.43
2023-03-06T10:53:23.256Z,15.50
2023-03-06T10:55:59.957Z,9.97
2023-03-06T10:58:32.286Z,11.20
2023-03-06T11:01:02.547Z,13.50
2023-03-06T11:03:29.477Z,10.70
2023-03-06T11:06:04.136Z,10.50
2023-03-06T11:08:32.016Z,11.23
2023-03-06T11:11:03.935Z,12.57
2023-03-06T11:13:33.698Z,10.77
2023-03-06T11:16:04.635Z,11.43
2023-03-06T11:18:35.712Z,11.73
2023-03-06T11:21:07.459Z,10.47
2023-03-06T11:23:40.782Z,10.77
2023-03-06T11:26:16.422Z,11.50
2023-03-06T11:28:47.474Z,10.53
2023-03-06T11:31:17.363Z,12.20
2023-03-06T11:33:55.470Z,12.87
2023-03-06T11:36:36.459Z,13.00
2023-03-06T11:39:04.566Z,11.93
2023-03-06T11:41:53.067Z,11.70
2023-03-06T11:44:29.868Z,12.87
2023-03-06T11:47:07.805Z,11.70
2023-03-06T11:49:42.198Z,12.13
2023-03-06T11:52:19.989Z,12.50
2023-03-06T11:54:52.038Z,12.30
2023-03-06T11:57:21.980Z,13.50
2023-03-06T11:59:51.599Z,10.93
2023-03-06T12:02:22.110Z,13.23
2023-03-06T12:04:53.092Z,11.53
2023-03-06T12:07:27.410Z,12.13
2023-03-06T12:10:18.430Z,10.80
2023-03-06T12:12:56.514Z,11.80
2023-03-06T12:15:42.963Z,11.23
2023-03-06T12:18:31.201Z,10.67
2023-03-06T12:21:07.506Z,10.47
2023-03-06T12:23:37.094Z,11.97
2023-03-06T12:26:22.471Z,10.70
2023-03-06T12:28:59.252Z,11.93
2023-03-06T12:31:40.692Z,10.20
2023-03-06T12:34:36.589Z,11.07
2023-03-06T12:37:08.825Z,11.20
2023-03-06T12:39:50.602Z,12.57
2023-03-06T12:42:40.381Z,10.73
2023-03-06T12:45:37.165Z,11.30
2023-03-06T12:48:09.814Z,9.83
2023-03-06T12:50:40.031Z,10.80
2023-03-06T12:53:08.554Z,10.90
2023-03-06T12:55:46.802Z,11.13
2023-03-06T12:58:55.677Z,11.93
2023-03-06T13:01:54.042Z,10.70
2023-03-06T13:04:39.363Z,10.17
2023-03-06T13:07:41.053Z,10.20
2023-03-06T13:10:26.942Z,9.83
2023-03-06T13:13:05.028Z,11.03
2023-03-06T13:15:40.807Z,11.07
2023-03-06T13:18:22.564Z,10.00
2023-03-06T13:20:53.089Z,11.00
2023-03-06T13:23:43.338Z,10.10
2023-03-06T13:26:25.085Z,10.83
2023-03-06T13:28:57.749Z,11.27
2023-03-06T13:31:28.474Z,11.23
2023-03-06T13:34:00.630Z,9.87
2023-03-06T13:36:34.558Z,11.33
2023-03-06T13:39:11.509Z,9.87
2023-03-06T13:41:57.865Z,10.17
2023-03-06T13:44:24.525Z,11.37
2023-03-06T13:47:18.641Z,11.70
2023-03-06T13:49:46.926Z,10.50
2023-03-06T13:52:28.278Z,11.53
2023-03-06T13:55:00.850Z,10.50
2023-03-06T13:57:52.781Z,11.97
2023-03-06T14:00:44.186Z,11.13
2023-03-06T14:03:10.642Z,10.27
2023-03-06T14:05:55.637Z,10.57
2023-03-06T14:08:30.872Z,10.53
2023-03-06T14:11:00.495Z,10.80
2023-03-06T14:13:38.399Z,10.40
2023-03-06T14:16:25.107Z,12.30
2023-03-06T14:18:54.051Z,11.33
2023-03-06T14:21:31.181Z,11.50
2023-03-06T14:24:05.400Z,11.00
2023-03-06T14:26:41.789Z,10.63
2023-03-06T14:29:22.890Z,10.13
2023-03-06T14:31:51.359Z,11.87
2023-03-06T14:34:21.035Z,11.73
2023-03-06T14:36:52.323Z,11.27
2023-03-06T14:39:43.551Z,10.40
2023-03-06T14:42:24.970Z,11.17
2023-03-06T14:45:16.339Z,9.97
2023-03-06T14:47:43.846Z,11.47
2023-03-06T14:50:25.775Z,11.60
2023-03-06T14:52:56.327Z,10.70
2023-03-06T14:55:26.485Z,11.17
2023-03-06T14:58:10.755Z,12.37
2023-03-06T15:00:41.489Z,11.27
2023-03-06T15:03:15.505Z,12.70
2023-03-06T15:05:44.244Z,10.33
2023-03-06T15:08:14.029Z,9.87
2023-03-06T15:10:40.518Z,9.30
2023-03-06T15:13:24.774Z,12.07
2023-03-06T15:15:58.408Z,12.03
2023-03-06T15:18:39.092Z,10.43
2023-03-06T15:21:07.860Z,12.07
2023-03-06T15:23:42.955Z,11.40
2023-03-06T15:26:27.023Z,10.87
2023-03-06T15:29:13.747Z,13.03
2023-03-06T15:31:44.592Z,11.63
2023-03-06T15:34:11.450Z,12.00
2023-03-06T15:36:39.422Z,11.20
2023-03-06T15:39:26.498Z,11.23
2023-03-06T15:42:01.403Z,10.20
2023-03-06T15:44:30.810Z,9.57
2023-03-06T15:47:07.818Z,11.37
2023-03-06T15:49:37.352Z,11.07
2023-03-06T15:52:03.901Z,10.30
2023-03-06T15:54:32.836Z,12.00
2023-03-06T15:56:59.986Z,13.33
2023-03-06T15:59:31.329Z,11.97
2023-03-06T16:02:00.384Z,11.10
2023-03-06T16:04:27.505Z,11.10
2023-03-06T16:06:54.141Z,11.67
2023-03-06T16:09:20.674Z,10.83
2023-03-06T16:11:47.367Z,11.07
2023-03-06T16:14:21.053Z,13.50
2023-03-06T16:16:48.227Z,13.43
2023-03-06T16:19:25.888Z,12.73
2023-03-06T16:21:53.257Z,12.30
2023-03-06T16:24:19.801Z,11.70
2023-03-06T16:26:50.953Z,12.60
2023-03-06T16:29:23.163Z,11.80
2023-03-06T16:31:49.756Z,10.67
2023-03-06T16:34:16.811Z,11.80
2023-03-06T16:36:43.441Z,12.07
2023-03-06T16:39:17.567Z,11.47
2023-03-06T16:41:45.989Z,10.67
2023-03-06T16:44:13.426Z,10.40
2023-03-06T16:46:42.323Z,12.03
2023-03-06T16:49:15.263Z,14.17
2023-03-06T16:51:42.056Z,13.60
2023-03-06T16:54:08.656Z,11.03
2023-03-06T16:56:35.204Z,9.50
2023-03-06T16:59:01.691Z,10.23
2023-03-06T17:01:28.182Z,10.87
2023-03-06T17:03:54.895Z,10.37
2023-03-06T17:06:22.419Z,11.40
2023-03-06T17:08:50.660Z,11.33
2023-03-06T17:11:20.238Z,13.77
2023-03-06T17:13:47.600Z,12.70
2023-03-06T17:16:16.394Z,11.30
2023-03-06T17:18:44.212Z,10.13
2023-03-06T17:21:11.378Z,9.90
2023-03-06T17:23:38.214Z,10.13
2023-03-06T17:26:07.462Z,15.97
2023-03-06T17:28:35.529Z,17.10
2023-03-06T17:31:04.175Z,15.20
2023-03-06T17:33:31.026Z,16.90
2023-03-06T17:35:59.417Z,11.60
2023-03-06T17:38:27.300Z,11.67
2023-03-06T17:40:53.881Z,10.80
2023-03-06T17:43:20.780Z,12.17
2023-03-06T17:45:47.592Z,10.90
2023-03-06T17:48:14.376Z,12.70
2023-03-06T17:50:40.994Z,13.70
2023-03-06T17:53:07.509Z,11.60
2023-03-06T17:55:34.105Z,12.23
2023-03-06T17:58:00.597Z,12.17
2023-03-06T18:00:27.137Z,13.67
2023-03-06T18:02:53.700Z,13.70
2023-03-06T18:05:21.809Z,16.30
2023-03-06T18:07:48.523Z,15.00
2023-03-06T18:10:15.320Z,14.00
2023-03-06T18:12:41.962Z,14.73
2023-03-06T18:15:08.989Z,14.70
2023-03-06T18:17:35.601Z,12.73
2023-03-06T18:20:02.446Z,11.90
2023-03-06T18:22:29.054Z,14.27
2023-03-06T18:24:56.098Z,15.23
2023-03-06T18:27:22.934Z,15.30
2023-03-06T18:29:49.624Z,11.80
2023-03-06T18:32:16.296Z,11.27
2023-03-06T18:34:43.075Z,12.60
2023-03-06T18:37:09.709Z,15.17
2023-03-06T18:39:36.423Z,13.90
2023-03-06T18:42:03.169Z,13.10
2023-03-06T18:44:29.762Z,12.17
2023-03-06T18:46:56.286Z,11.47
2023-03-06T18:49:22.973Z,13.10
2023-03-06T18:51:50.394Z,13.67
2023-03-06T18:54:16.996Z,13.43
2023-03-06T18:56:44.722Z,12.40
2023-03-06T18:59:18.559Z,12.37
2023-03-06T19:01:46.239Z,11.37
2023-03-06T19:04:12.981Z,12.10
2023-03-06T19:06:40.012Z,12.30
2023-03-06T19:09:07.300Z,10.33
2023-03-06T19:11:33.943Z,11.90
2023-03-06T19:14:00.797Z,11.17
2023-03-06T19:16:29.667Z,11.50
2023-03-06T19:18:57.318Z,11.30
2023-03-06T19:21:26.648Z,11.60
2023-03-06T19:23:53.388Z,12.10
2023-03-06T19:26:20.177Z,12.10
2023-03-06T19:28:47.336Z,11.73
2023-03-06T19:31:20.301Z,11.23
2023-03-06T19:33:48.927Z,12.00
2023-03-06T19:36:16.914Z,11.43
2023-03-06T19:38:43.457Z,10.57
2023-03-06T19:41:13.895Z,10.20
2023-03-06T19:43:41.446Z,9.47
2023-03-06T19:46:14.071Z,11.23
2023-03-06T19:48:41.426Z,11.60
2023-03-06T19:51:08.930Z,11.27
2023-03-06T19:53:35.637Z,9.90
2023-03-06T19:56:06.620Z,10.10
2023-03-06T19:58:33.417Z,11.17
2023-03-06T20:01:17.983Z,9.90
2023-03-06T20:03:44.623Z,11.77
2023-03-06T20:06:15.331Z,11.23
2023-03-06T20:08:42.970Z,11.63
2023-03-06T20:11:20.164Z,11.03
2023-03-06T20:13:47.755Z,10.93
2023-03-06T20:16:15.003Z,9.93
2023-03-06T20:18:41.547Z,11.00
2023-03-06T20:21:08.118Z,9.60
2023-03-06T20:23:35.103Z,12.90
2023-03-06T20:26:06.396Z,12.60
2023-03-06T20:28:33.290Z,11.40
2023-03-06T20:30:59.996Z,10.60
2023-03-06T20:33:27.087Z,11.13
2023-03-06T20:35:54.136Z,13.13
2023-03-06T20:38:20.873Z,12.90
2023-03-06T20:40:47.532Z,13.10
2023-03-06T20:43:14.107Z,13.00
2023-03-06T20:45:40.739Z,12.60
2023-03-06T20:48:07.594Z,11.63
2023-03-06T20:50:37.103Z,11.87
2023-03-06T20:53:04.206Z,12.07
2023-03-06T20:55:36.391Z,11.80
2023-03-06T20:58:02.987Z,12.67
2023-03-06T21:00:29.538Z,12.20
2023-03-06T21:02:56.041Z,11.47
2023-03-06T21:05:22.598Z,13.97
2023-03-06T21:07:49.156Z,11.93
2023-03-06T21:10:15.885Z,13.37
2023-03-06T21:12:42.611Z,11.13
2023-03-06T21:15:09.480Z,13.17
2023-03-06T21:17:36.100Z,14.60
2023-03-06T21:20:02.934Z,17.10
2023-03-06T21:22:30.342Z,22.10
2023-03-06T21:24:56.877Z,23.40
2023-03-06T21:27:23.552Z,15.00
2023-03-06T21:29:50.693Z,13.00
2023-03-06T21:32:17.403Z,12.93
2023-03-06T21:34:44.029Z,12.30
2023-03-06T21:37:10.741Z,14.00
2023-03-06T21:39:38.539Z,13.10
2023-03-06T21:42:05.313Z,13.10
2023-03-06T21:44:31.847Z,13.60
2023-03-06T21:46:58.415Z,12.73
2023-03-06T21:49:26.414Z,13.13
2023-03-06T21:51:53.633Z,11.50
2023-03-06T21:54:20.424Z,12.00
2023-03-06T21:56:47.068Z,11.70
2023-03-06T21:59:13.787Z,11.90
2023-03-06T22:01:42.604Z,11.80
2023-03-06T22:04:09.422Z,12.03
2023-03-06T22:06:38.214Z,10.43
2023-03-06T22:09:04.759Z,11.00
2023-03-06T22:11:31.673Z,10.90
2023-03-06T22:13:58.265Z,10.80
2023-03-06T22:16:24.927Z,12.40
2023-03-06T22:18:52.210Z,16.00
2023-03-06T22:21:20.772Z,14.77
2023-03-06T22:23:57.786Z,14.27
2023-03-06T22:26:24.771Z,16.30
2023-03-06T22:28:51.615Z,14.60
2023-03-06T22:31:29.096Z,15.40
2023-03-06T22:33:57.519Z,16.63
2023-03-06T22:36:24.428Z,15.57
2023-03-06T22:38:55.047Z,14.80
2023-03-06T22:41:21.711Z,14.43
2023-03-06T22:43:48.402Z,14.60
2023-03-06T22:46:16.815Z,14.70
2023-03-06T22:48:43.986Z,13.50
2023-03-06T22:51:16.231Z,13.27
2023-03-06T22:53:43.346Z,13.70
2023-03-06T22:56:12.855Z,16.87
2023-03-06T22:58:40.425Z,14.40
2023-03-06T23:01:09.033Z,14.67
2023-03-06T23:03:40.076Z,16.90
2023-03-06T23:06:26.877Z,14.40
2023-03-06T23:08:56.043Z,14.17
2023-03-06T23:11:23.535Z,16.63
2023-03-06T23:13:50.027Z,16.77
2023-03-06T23:16:16.535Z,16.30
2023-03-06T23:18:43.123Z,13.20
2023-03-06T23:21:11.965Z,13.47
2023-03-06T23:23:39.412Z,14.00
2023-03-06T23:26:10.677Z,13.23
2023-03-06T23:28:37.350Z,14.67
2023-03-06T23:31:08.118Z,14.40
2023-03-06T23:33:35.159Z,12.93
2023-03-06T23:36:03.355Z,11.70
2023-03-06T23:38:30.257Z,13.57
2023-03-06T23:40:56.757Z,12.50
2023-03-06T23:43:23.297Z,13.43
2023-03-06T23:45:54.091Z,14.43
2023-03-06T23:48:20.764Z,14.17
2023-03-06T23:50:47.323Z,13.50
2023-03-06T23:53:14.730Z,14.23
2023-03-06T23:55:42.395Z,13.97
2023-03-06T23:58:09.091Z,12.90
